createdAt,value
2018-09-10T00:00:02.457Z,0
2018-09-10T00:05:02.644Z,0
2018-09-10T00:10:03.267Z,0
2018-09-10T00:15:02.831Z,0
2018-09-10T00:20:02.676Z,0
2018-09-10T00:25:03.193Z,0
2018-09-10T00:30:02.724Z,0
2018-09-10T00:35:03.314Z,0
2018-09-10T00:40:02.843Z,0
2018-09-10T00:45:02.388Z,0
2018-09-10T00:50:02.938Z,0
2018-09-10T00:55:02.524Z,0
2018-09-10T01:00:03.007Z,0
2018-09-10T01:05:02.575Z,0
2018-09-10T01:10:03.285Z,0
2018-09-10T01:15:02.878Z,0
2018-09-10T01:20:02.523Z,0
2018-09-10T01:25:03.141Z,0
2018-09-10T01:30:02.721Z,0
2018-09-10T01:35:03.344Z,0
2018-09-10T01:40:02.870Z,0
2018-09-10T01:45:02.796Z,0
2018-09-10T01:50:03.304Z,0
2018-09-10T01:55:02.788Z,0
2018-09-10T02:00:03.368Z,0
2018-09-10T02:05:02.981Z,0
2018-09-10T02:10:02.644Z,0
2018-09-10T02:15:02.467Z,0
2018-09-10T02:20:03.100Z,0
2018-09-10T02:25:02.667Z,0
2018-09-10T02:30:03.275Z,0
2018-09-10T02:35:02.853Z,0
2018-09-10T02:40:02.393Z,0
2018-09-10T02:45:02.920Z,0
2018-09-10T02:50:02.551Z,0
2018-09-10T02:55:03.343Z,0
2018-09-10T03:00:02.440Z,0
2018-09-10T03:05:02.913Z,0
2018-09-10T03:10:02.468Z,0
2018-09-10T03:15:03.077Z,0
2018-09-10T03:20:02.691Z,0
2018-09-10T03:25:02.390Z,0
2018-09-10T03:30:02.905Z,0
2018-09-10T03:35:02.470Z,0
2018-09-10T03:40:03.151Z,0
2018-09-10T03:45:02.643Z,0
2018-09-10T03:50:03.358Z,0
2018-09-10T03:55:02.941Z,0
2018-09-10T04:00:02.714Z,0
2018-09-10T04:05:03.330Z,0
2018-09-10T04:10:02.866Z,0
2018-09-10T04:15:02.501Z,0
2018-09-10T04:20:03.054Z,0
2018-09-10T04:25:02.665Z,0
2018-09-10T04:30:02.428Z,1
2018-09-10T04:35:03.090Z,2
2018-09-10T04:40:02.723Z,4
2018-09-10T04:45:03.185Z,9
2018-09-10T04:50:02.791Z,18
2018-09-10T04:55:02.393Z,26
2018-09-10T05:00:02.994Z,45
2018-09-10T05:05:02.597Z,60
2018-09-10T05:10:03.476Z,89
2018-09-10T05:15:02.383Z,110
2018-09-10T05:20:02.978Z,127
2018-09-10T05:25:02.609Z,227
2018-09-10T05:30:03.208Z,287
2018-09-10T05:35:02.721Z,375
2018-09-10T05:40:03.340Z,529
2018-09-10T05:45:02.938Z,640
2018-09-10T05:50:02.534Z,726
2018-09-10T05:55:03.022Z,872
2018-09-10T06:00:02.600Z,972
2018-09-10T06:05:03.358Z,1000
2018-09-10T06:10:02.965Z,1000
2018-09-10T06:15:02.621Z,1000
2018-09-10T06:20:03.230Z,1000
2018-09-10T06:25:02.760Z,2000
2018-09-10T06:30:03.273Z,2000
2018-09-10T06:35:02.839Z,4000
2018-09-10T06:40:02.575Z,4000
2018-09-10T06:45:03.141Z,2000
2018-09-10T06:50:02.643Z,2000
2018-09-10T06:55:03.219Z,2000
2018-09-10T07:00:02.895Z,2000
2018-09-10T07:05:02.585Z,2000
2018-09-10T07:10:03.217Z,2000
2018-09-10T07:15:02.716Z,2000
2018-09-10T07:20:03.253Z,2000
2018-09-10T07:25:02.834Z,3000
2018-09-10T07:30:02.451Z,3000
2018-09-10T07:35:03.063Z,4000
2018-09-10T07:40:02.802Z,4000
2018-09-10T07:45:03.355Z,4000
2018-09-10T07:50:02.878Z,5000
2018-09-10T07:55:02.449Z,6000
2018-09-10T08:00:03.045Z,6000
2018-09-10T08:05:02.605Z,7000
2018-09-10T08:10:03.246Z,7000
2018-09-10T08:15:02.789Z,7000
2018-09-10T08:20:02.348Z,6000
2018-09-10T08:25:02.958Z,7000
2018-09-10T08:30:02.836Z,9000
2018-09-10T08:35:02.419Z,9000
2018-09-10T08:40:03.023Z,11000
2018-09-10T08:45:02.652Z,53000
2018-09-10T08:50:03.220Z,32000
2018-09-10T08:55:03.540Z,34000
2018-09-10T09:00:02.545Z,15000
2018-09-10T09:05:03.309Z,11000
2018-09-10T09:10:02.949Z,11000
2018-09-10T09:15:02.603Z,19000
2018-09-10T09:20:03.155Z,14000
2018-09-10T09:25:02.713Z,9000
2018-09-10T09:30:03.370Z,13000
2018-09-10T09:35:03.199Z,11000
2018-09-10T09:40:02.784Z,11000
2018-09-10T09:45:03.371Z,9000
2018-09-10T09:50:02.978Z,10000
2018-09-10T09:55:02.612Z,10000
2018-09-10T10:00:03.265Z,12000
2018-09-10T10:05:02.862Z,10000
2018-09-10T10:10:02.438Z,10000
2018-09-10T10:15:03.337Z,10000
2018-09-10T10:20:02.859Z,11000
2018-09-10T10:25:02.465Z,9000
2018-09-10T10:30:03.161Z,11000
2018-09-10T10:35:02.816Z,24000
2018-09-10T10:40:02.414Z,15000
2018-09-10T10:45:03.281Z,17000
2018-09-10T10:50:02.822Z,12000
2018-09-10T10:55:02.409Z,10000
2018-09-10T11:00:02.984Z,10000
2018-09-10T11:05:02.718Z,12000
2018-09-10T11:10:03.330Z,10000
2018-09-10T11:15:02.864Z,9000
2018-09-10T11:20:02.470Z,8000
2018-09-10T11:25:03.036Z,8000
2018-09-10T11:30:02.580Z,7000
2018-09-10T11:35:03.136Z,8000
2018-09-10T11:40:02.724Z,8000
2018-09-10T11:45:03.253Z,6000
2018-09-10T11:50:02.897Z,6000
2018-09-10T11:55:02.484Z,5000
2018-09-10T12:00:03.080Z,4000
2018-09-10T12:05:02.726Z,4000
2018-09-10T12:10:03.304Z,3000
2018-09-10T12:15:02.864Z,3000
2018-09-10T12:20:02.415Z,6000
2018-09-10T12:25:02.998Z,6000
2018-09-10T12:30:02.536Z,6000
2018-09-10T12:35:03.151Z,3000
2018-09-10T12:40:02.748Z,3000
2018-09-10T12:45:03.344Z,6000
2018-09-10T12:50:02.938Z,6000
2018-09-10T12:55:02.512Z,6000
2018-09-10T13:00:03.116Z,4000
2018-09-10T13:05:02.670Z,4000
2018-09-10T13:10:02.387Z,4000
2018-09-10T13:15:02.836Z,5000
2018-09-10T13:20:02.465Z,5000
2018-09-10T13:25:02.942Z,4000
2018-09-10T13:30:02.450Z,4000
2018-09-10T13:35:02.997Z,4000
2018-09-10T13:40:02.487Z,4000
2018-09-10T13:45:03.123Z,2000
2018-09-10T13:50:02.631Z,2000
2018-09-10T13:55:03.194Z,2000
2018-09-10T14:00:02.842Z,2000
2018-09-10T14:05:02.459Z,2000
2018-09-10T14:10:03.053Z,7000
2018-09-10T14:15:02.593Z,7000
2018-09-10T14:20:03.220Z,9000
2018-09-10T14:25:02.821Z,8000
2018-09-10T14:30:03.218Z,6000
2018-09-10T14:35:02.882Z,5000
2018-09-10T14:40:02.503Z,6000
2018-09-10T14:45:03.140Z,4000
2018-09-10T14:50:02.880Z,3000
2018-09-10T14:55:02.540Z,3000
2018-09-10T15:00:02.928Z,1000
2018-09-10T15:05:02.466Z,3000
2018-09-10T15:10:03.051Z,2000
2018-09-10T15:15:02.679Z,1000
2018-09-10T15:20:03.311Z,2000
2018-09-10T15:25:02.878Z,1000
2018-09-10T15:30:02.416Z,1000
2018-09-10T15:35:03.010Z,1000
2018-09-10T15:40:02.650Z,2000
2018-09-10T15:45:03.396Z,1000
2018-09-10T15:50:03.149Z,2000
2018-09-10T15:55:02.670Z,2000
2018-09-10T16:00:03.397Z,2000
2018-09-10T16:05:02.422Z,3000
2018-09-10T16:10:03.097Z,2000
2018-09-10T16:15:02.691Z,2000
2018-09-10T16:20:03.314Z,2000
2018-09-10T16:25:02.921Z,2000
2018-09-10T16:30:02.567Z,2000
2018-09-10T16:35:03.289Z,2000
2018-09-10T16:40:02.898Z,1000
2018-09-10T16:45:02.549Z,1000
2018-09-10T16:50:03.095Z,1000
2018-09-10T16:55:02.957Z,1000
2018-09-10T17:00:03.235Z,1000
2018-09-10T17:05:02.816Z,1000
2018-09-10T17:10:02.452Z,1000
2018-09-10T17:15:03.047Z,1000
2018-09-10T17:20:02.721Z,1000
2018-09-10T17:25:03.324Z,774
2018-09-10T17:30:02.965Z,612
2018-09-10T17:35:02.509Z,481
2018-09-10T17:40:03.175Z,372
2018-09-10T17:45:02.759Z,237
2018-09-10T17:50:03.263Z,72
2018-09-10T17:55:02.850Z,60
2018-09-10T18:00:02.522Z,60
2018-09-10T18:05:03.086Z,43
2018-09-10T18:10:02.722Z,39
2018-09-10T18:15:03.260Z,29
2018-09-10T18:20:02.884Z,23
2018-09-10T18:25:02.764Z,4
2018-09-10T18:30:02.877Z,4
2018-09-10T18:35:02.507Z,2
2018-09-10T18:40:03.273Z,0
2018-09-10T18:45:02.947Z,0
2018-09-10T18:50:02.708Z,0
2018-09-10T18:55:03.465Z,0
2018-09-10T19:00:02.997Z,0
2018-09-10T19:05:02.652Z,0
2018-09-10T19:10:03.347Z,0
2018-09-10T19:15:02.884Z,0
2018-09-10T19:20:02.826Z,0
2018-09-10T19:25:02.509Z,0
2018-09-10T19:30:03.206Z,0
2018-09-10T19:35:02.832Z,0
2018-09-10T19:40:02.556Z,0
2018-09-10T19:45:03.228Z,0
2018-09-10T19:50:02.781Z,0
2018-09-10T19:55:02.382Z,0
2018-09-10T20:00:03.437Z,0
2018-09-10T20:05:03.047Z,0
2018-09-10T20:10:02.819Z,0
2018-09-10T20:15:02.577Z,0
2018-09-10T20:20:03.431Z,0
2018-09-10T20:25:03.016Z,0
2018-09-10T20:30:02.733Z,0
2018-09-10T20:35:02.451Z,0
2018-09-10T20:40:03.273Z,0
2018-09-10T20:45:02.929Z,0
2018-09-10T20:50:02.777Z,0
2018-09-10T20:55:03.417Z,0
2018-09-10T21:00:03.066Z,0
2018-09-10T21:05:02.668Z,0
2018-09-10T21:10:03.426Z,0
2018-09-10T21:15:03.005Z,0
2018-09-10T21:20:02.720Z,0
2018-09-10T21:25:03.357Z,0
2018-09-10T21:30:03.003Z,0
2018-09-10T21:35:02.729Z,0
2018-09-10T21:40:03.375Z,0
2018-09-10T21:45:02.913Z,0
2018-09-10T21:50:02.607Z,0
2018-09-10T21:55:03.260Z,0
2018-09-10T22:00:02.833Z,0
2018-09-10T22:05:02.489Z,0
2018-09-10T22:10:03.385Z,0
2018-09-10T22:15:02.351Z,0
2018-09-10T22:20:03.095Z,0
2018-09-10T22:25:02.787Z,0
2018-09-10T22:30:02.511Z,0
2018-09-10T22:35:03.215Z,0
2018-09-10T22:40:02.710Z,0
2018-09-10T22:45:03.441Z,0
2018-09-10T22:50:02.926Z,0
2018-09-10T22:55:02.613Z,0
2018-09-10T23:00:03.279Z,0
2018-09-10T23:05:02.584Z,0
2018-09-10T23:10:03.294Z,0
2018-09-10T23:15:02.812Z,0
2018-09-10T23:20:02.445Z,0
2018-09-10T23:25:02.981Z,0
2018-09-10T23:30:02.533Z,0
2018-09-10T23:35:03.110Z,0
2018-09-10T23:40:02.761Z,0
2018-09-10T23:45:03.356Z,0
2018-09-10T23:50:02.935Z,0
2018-09-10T23:55:02.386Z,0
